sensor_id;sensor_type;location;lat;lon;timestamp;pressure;altitude;pressure_sealevel;temperature;humidity
75247;BME280;63844;50.042;19.224;2022-11-21T00:00:30;98332.98;;;-1.92;86.40
75247;BME280;63844;50.042;19.224;2022-11-21T00:03:02;98332.84;;;-1.93;86.24
75247;BME280;63844;50.042;19.224;2022-11-21T00:05:29;98329.05;;;-1.94;86.21
75247;BME280;63844;50.042;19.224;2022-11-21T00:07:56;98327.14;;;-1.94;85.75
75247;BME280;63844;50.042;19.224;2022-11-21T00:10:24;98324.30;;;-1.98;86.92
75247;BME280;63844;50.042;19.224;2022-11-21T00:12:55;98323.07;;;-1.97;86.35
75247;BME280;63844;50.042;19.224;2022-11-21T00:15:24;98325.88;;;-1.99;85.62
75247;BME280;63844;50.042;19.224;2022-11-21T00:17:51;98322.69;;;-1.96;86.30
75247;BME280;63844;50.042;19.224;2022-11-21T00:20:19;98317.72;;;-1.91;86.10
75247;BME280;63844;50.042;19.224;2022-11-21T00:22:47;98307.16;;;-1.92;86.25
75247;BME280;63844;50.042;19.224;2022-11-21T00:25:14;98305.10;;;-1.88;85.98
75247;BME280;63844;50.042;19.224;2022-11-21T00:27:41;98314.48;;;-1.82;86.33
75247;BME280;63844;50.042;19.224;2022-11-21T00:30:09;98312.84;;;-1.78;86.25
75247;BME280;63844;50.042;19.224;2022-11-21T00:32:36;98307.02;;;-1.75;86.48
75247;BME280;63844;50.042;19.224;2022-11-21T00:35:03;98292.13;;;-1.75;86.79
75247;BME280;63844;50.042;19.224;2022-11-21T00:37:33;98290.17;;;-1.80;87.21
75247;BME280;63844;50.042;19.224;2022-11-21T00:40:00;98286.13;;;-1.84;87.57
75247;BME280;63844;50.042;19.224;2022-11-21T00:42:26;98283.51;;;-1.90;87.59
75247;BME280;63844;50.042;19.224;2022-11-21T00:44:52;98286.19;;;-1.93;86.62
75247;BME280;63844;50.042;19.224;2022-11-21T00:47:19;98285.83;;;-1.98;86.15
75247;BME280;63844;50.042;19.224;2022-11-21T00:49:45;98283.03;;;-2.05;86.26
75247;BME280;63844;50.042;19.224;2022-11-21T00:52:12;98277.30;;;-2.10;86.51
75247;BME280;63844;50.042;19.224;2022-11-21T00:54:38;98273.81;;;-2.16;86.94
75247;BME280;63844;50.042;19.224;2022-11-21T00:57:05;98270.09;;;-2.20;86.12
75247;BME280;63844;50.042;19.224;2022-11-21T00:59:31;98264.06;;;-2.28;86.44
75247;BME280;63844;50.042;19.224;2022-11-21T01:01:58;98264.13;;;-2.31;86.02
75247;BME280;63844;50.042;19.224;2022-11-21T01:04:24;98263.92;;;-2.36;85.61
75247;BME280;63844;50.042;19.224;2022-11-21T01:06:51;98258.53;;;-2.42;85.51
75247;BME280;63844;50.042;19.224;2022-11-21T01:09:17;98257.96;;;-2.47;85.87
75247;BME280;63844;50.042;19.224;2022-11-21T01:11:43;98254.23;;;-2.49;85.69
75247;BME280;63844;50.042;19.224;2022-11-21T01:14:10;98252.04;;;-2.52;86.01
75247;BME280;63844;50.042;19.224;2022-11-21T01:16:36;98255.64;;;-2.51;86.00
75247;BME280;63844;50.042;19.224;2022-11-21T01:19:03;98259.73;;;-2.48;85.94
75247;BME280;63844;50.042;19.224;2022-11-21T01:21:30;98261.79;;;-2.48;85.89
75247;BME280;63844;50.042;19.224;2022-11-21T01:24:00;98263.08;;;-2.51;85.74
75247;BME280;63844;50.042;19.224;2022-11-21T01:26:30;98257.59;;;-2.53;85.86
75247;BME280;63844;50.042;19.224;2022-11-21T01:28:58;98254.55;;;-2.55;85.68
75247;BME280;63844;50.042;19.224;2022-11-21T01:31:29;98250.48;;;-2.59;85.79
75247;BME280;63844;50.042;19.224;2022-11-21T01:33:57;98245.41;;;-2.64;85.62
75247;BME280;63844;50.042;19.224;2022-11-21T01:36:26;98247.80;;;-2.70;85.64
75247;BME280;63844;50.042;19.224;2022-11-21T01:38:55;98254.66;;;-2.74;85.70
75247;BME280;63844;50.042;19.224;2022-11-21T01:41:36;98255.78;;;-2.78;85.47
75247;BME280;63844;50.042;19.224;2022-11-21T01:46:48;98249.84;;;-2.83;85.58
75247;BME280;63844;50.042;19.224;2022-11-21T01:49:26;98249.20;;;-2.84;85.64
75247;BME280;63844;50.042;19.224;2022-11-21T01:52:05;98246.54;;;-2.89;85.82
75247;BME280;63844;50.042;19.224;2022-11-21T02:02:29;98256.42;;;-3.11;86.01
75247;BME280;63844;50.042;19.224;2022-11-21T02:04:59;98262.52;;;-3.14;86.06
75247;BME280;63844;50.042;19.224;2022-11-21T02:07:28;98260.14;;;-3.15;85.87
75247;BME280;63844;50.042;19.224;2022-11-21T02:09:58;98267.22;;;-3.15;85.63
75247;BME280;63844;50.042;19.224;2022-11-21T02:12:49;98272.17;;;-3.12;85.37
75247;BME280;63844;50.042;19.224;2022-11-21T02:15:21;98269.67;;;-3.09;85.32
75247;BME280;63844;50.042;19.224;2022-11-21T02:17:48;98274.61;;;-3.05;85.57
75247;BME280;63844;50.042;19.224;2022-11-21T02:20:19;98273.25;;;-2.99;85.80
75247;BME280;63844;50.042;19.224;2022-11-21T02:25:21;98262.11;;;-2.88;86.18
75247;BME280;63844;50.042;19.224;2022-11-21T02:27:53;98260.24;;;-2.83;86.07
75247;BME280;63844;50.042;19.224;2022-11-21T02:30:21;98254.85;;;-2.81;86.07
75247;BME280;63844;50.042;19.224;2022-11-21T02:32:48;98249.56;;;-2.78;86.26
75247;BME280;63844;50.042;19.224;2022-11-21T02:35:16;98248.71;;;-2.78;86.21
75247;BME280;63844;50.042;19.224;2022-11-21T02:37:46;98248.11;;;-2.83;86.17
75247;BME280;63844;50.042;19.224;2022-11-21T02:40:17;98245.88;;;-2.83;86.16
75247;BME280;63844;50.042;19.224;2022-11-21T02:42:59;98242.09;;;-2.84;86.34
75247;BME280;63844;50.042;19.224;2022-11-21T02:45:32;98239.35;;;-2.92;85.95
75247;BME280;63844;50.042;19.224;2022-11-21T02:47:58;98230.20;;;-3.01;86.32
75247;BME280;63844;50.042;19.224;2022-11-21T02:50:28;98232.19;;;-3.04;87.28
75247;BME280;63844;50.042;19.224;2022-11-21T02:52:56;98226.41;;;-3.09;86.59
75247;BME280;63844;50.042;19.224;2022-11-21T02:55:24;98224.92;;;-3.12;85.91
75247;BME280;63844;50.042;19.224;2022-11-21T02:57:51;98228.48;;;-3.16;86.26
75247;BME280;63844;50.042;19.224;2022-11-21T03:00:18;98232.67;;;-3.18;86.22
75247;BME280;63844;50.042;19.224;2022-11-21T03:02:46;98237.27;;;-3.21;86.03
75247;BME280;63844;50.042;19.224;2022-11-21T03:05:17;98238.89;;;-3.24;86.58
75247;BME280;63844;50.042;19.224;2022-11-21T03:07:45;98240.60;;;-3.23;86.31
75247;BME280;63844;50.042;19.224;2022-11-21T03:10:11;98236.04;;;-3.21;86.02
75247;BME280;63844;50.042;19.224;2022-11-21T03:12:39;98240.00;;;-3.21;85.60
75247;BME280;63844;50.042;19.224;2022-11-21T03:15:08;98243.43;;;-3.26;85.75
75247;BME280;63844;50.042;19.224;2022-11-21T03:17:34;98241.76;;;-3.28;86.43
75247;BME280;63844;50.042;19.224;2022-11-21T03:20:01;98240.22;;;-3.29;86.28
75247;BME280;63844;50.042;19.224;2022-11-21T03:22:27;98235.54;;;-3.29;86.29
75247;BME280;63844;50.042;19.224;2022-11-21T03:24:54;98232.34;;;-3.26;86.18
75247;BME280;63844;50.042;19.224;2022-11-21T03:27:20;98226.39;;;-3.22;86.30
75247;BME280;63844;50.042;19.224;2022-11-21T03:29:47;98218.86;;;-3.26;86.72
75247;BME280;63844;50.042;19.224;2022-11-21T03:32:13;98214.16;;;-3.32;86.92
75247;BME280;63844;50.042;19.224;2022-11-21T03:34:40;98209.05;;;-3.35;86.65
75247;BME280;63844;50.042;19.224;2022-11-21T03:37:07;98204.02;;;-3.44;86.58
75247;BME280;63844;50.042;19.224;2022-11-21T03:39:33;98199.46;;;-3.48;87.09
75247;BME280;63844;50.042;19.224;2022-11-21T03:42:00;98201.52;;;-3.47;86.78
75247;BME280;63844;50.042;19.224;2022-11-21T03:44:26;98203.11;;;-3.49;86.53
75247;BME280;63844;50.042;19.224;2022-11-21T03:46:54;98199.86;;;-3.50;86.37
75247;BME280;63844;50.042;19.224;2022-11-21T03:49:21;98197.62;;;-3.51;87.52
75247;BME280;63844;50.042;19.224;2022-11-21T03:51:47;98193.76;;;-3.48;87.65
75247;BME280;63844;50.042;19.224;2022-11-21T03:54:14;98193.22;;;-3.48;87.54
75247;BME280;63844;50.042;19.224;2022-11-21T03:56:40;98192.35;;;-3.47;86.69
75247;BME280;63844;50.042;19.224;2022-11-21T03:59:06;98192.05;;;-3.49;87.30
75247;BME280;63844;50.042;19.224;2022-11-21T04:01:33;98187.79;;;-3.52;86.36
75247;BME280;63844;50.042;19.224;2022-11-21T04:03:59;98181.38;;;-3.59;88.15
75247;BME280;63844;50.042;19.224;2022-11-21T04:06:26;98174.59;;;-3.56;86.96
75247;BME280;63844;50.042;19.224;2022-11-21T04:08:52;98173.52;;;-3.55;87.20
75247;BME280;63844;50.042;19.224;2022-11-21T04:11:19;98175.14;;;-3.51;87.03
75247;BME280;63844;50.042;19.224;2022-11-21T04:13:47;98175.30;;;-3.50;87.69
75247;BME280;63844;50.042;19.224;2022-11-21T04:16:13;98169.80;;;-3.44;87.33
75247;BME280;63844;50.042;19.224;2022-11-21T04:18:40;98164.16;;;-3.40;87.36
75247;BME280;63844;50.042;19.224;2022-11-21T04:21:06;98159.04;;;-3.35;87.77
75247;BME280;63844;50.042;19.224;2022-11-21T04:23:33;98162.92;;;-3.31;88.45
75247;BME280;63844;50.042;19.224;2022-11-21T04:26:00;98161.40;;;-3.25;88.12
75247;BME280;63844;50.042;19.224;2022-11-21T04:28:27;98163.02;;;-3.21;87.39
75247;BME280;63844;50.042;19.224;2022-11-21T04:30:53;98160.48;;;-3.23;87.79
75247;BME280;63844;50.042;19.224;2022-11-21T04:33:19;98162.44;;;-3.19;87.43
75247;BME280;63844;50.042;19.224;2022-11-21T04:35:46;98161.98;;;-3.14;87.61
75247;BME280;63844;50.042;19.224;2022-11-21T04:38:13;98166.22;;;-3.10;87.89
75247;BME280;63844;50.042;19.224;2022-11-21T04:40:39;98163.68;;;-3.06;87.91
75247;BME280;63844;50.042;19.224;2022-11-21T04:43:05;98162.38;;;-3.09;88.89
75247;BME280;63844;50.042;19.224;2022-11-21T04:45:32;98159.11;;;-3.03;88.56
75247;BME280;63844;50.042;19.224;2022-11-21T04:47:58;98156.34;;;-3.02;88.84
75247;BME280;63844;50.042;19.224;2022-11-21T04:50:24;98151.55;;;-2.98;89.09
75247;BME280;63844;50.042;19.224;2022-11-21T04:52:52;98153.38;;;-2.88;88.64
75247;BME280;63844;50.042;19.224;2022-11-21T04:55:21;98146.75;;;-2.86;88.22
75247;BME280;63844;50.042;19.224;2022-11-21T04:57:48;98144.95;;;-2.84;88.52
75247;BME280;63844;50.042;19.224;2022-11-21T05:00:16;98141.55;;;-2.80;88.33
75247;BME280;63844;50.042;19.224;2022-11-21T05:02:43;98142.04;;;-2.79;88.19
75247;BME280;63844;50.042;19.224;2022-11-21T05:05:10;98142.40;;;-2.79;88.33
75247;BME280;63844;50.042;19.224;2022-11-21T05:07:37;98136.40;;;-2.75;88.16
75247;BME280;63844;50.042;19.224;2022-11-21T05:10:05;98130.02;;;-2.75;88.20
75247;BME280;63844;50.042;19.224;2022-11-21T05:12:32;98126.54;;;-2.75;87.98
75247;BME280;63844;50.042;19.224;2022-11-21T05:15:18;98113.86;;;-2.74;88.36
75247;BME280;63844;50.042;19.224;2022-11-21T05:17:44;98105.92;;;-2.74;88.91
75247;BME280;63844;50.042;19.224;2022-11-21T05:20:11;98103.49;;;-2.74;88.56
75247;BME280;63844;50.042;19.224;2022-11-21T05:22:38;98109.42;;;-2.76;88.28
75247;BME280;63844;50.042;19.224;2022-11-21T05:25:05;98111.23;;;-2.79;88.72
75247;BME280;63844;50.042;19.224;2022-11-21T05:27:31;98108.14;;;-2.79;88.17
75247;BME280;63844;50.042;19.224;2022-11-21T05:29:58;98108.67;;;-2.80;88.39
75247;BME280;63844;50.042;19.224;2022-11-21T05:32:24;98106.17;;;-2.77;87.93
75247;BME280;63844;50.042;19.224;2022-11-21T05:34:51;98111.69;;;-2.76;87.56
75247;BME280;63844;50.042;19.224;2022-11-21T05:37:17;98110.73;;;-2.73;87.66
75247;BME280;63844;50.042;19.224;2022-11-21T05:39:44;98101.05;;;-2.74;88.05
75247;BME280;63844;50.042;19.224;2022-11-21T05:42:10;98094.66;;;-2.75;88.43
75247;BME280;63844;50.042;19.224;2022-11-21T05:44:36;98093.32;;;-2.70;88.14
75247;BME280;63844;50.042;19.224;2022-11-21T05:47:03;98090.94;;;-2.65;87.84
75247;BME280;63844;50.042;19.224;2022-11-21T05:49:29;98087.24;;;-2.63;87.92
75247;BME280;63844;50.042;19.224;2022-11-21T05:51:55;98084.61;;;-2.62;87.85
75247;BME280;63844;50.042;19.224;2022-11-21T05:54:22;98080.45;;;-2.62;88.26
75247;BME280;63844;50.042;19.224;2022-11-21T05:56:48;98077.90;;;-2.63;88.86
75247;BME280;63844;50.042;19.224;2022-11-21T05:59:15;98085.64;;;-2.61;88.60
75247;BME280;63844;50.042;19.224;2022-11-21T06:01:41;98088.02;;;-2.59;88.10
75247;BME280;63844;50.042;19.224;2022-11-21T06:04:26;98095.09;;;-2.58;87.96
75247;BME280;63844;50.042;19.224;2022-11-21T06:06:53;98088.04;;;-2.60;88.62
75247;BME280;63844;50.042;19.224;2022-11-21T06:09:19;98087.14;;;-2.59;87.71
75247;BME280;63844;50.042;19.224;2022-11-21T06:11:45;98077.93;;;-2.58;87.81
75247;BME280;63844;50.042;19.224;2022-11-21T06:14:12;98081.98;;;-2.55;87.51
75247;BME280;63844;50.042;19.224;2022-11-21T06:16:38;98083.00;;;-2.54;88.08
75247;BME280;63844;50.042;19.224;2022-11-21T06:19:04;98091.38;;;-2.50;87.94
75247;BME280;63844;50.042;19.224;2022-11-21T06:21:31;98092.73;;;-2.48;88.26
75247;BME280;63844;50.042;19.224;2022-11-21T06:24:00;98092.98;;;-2.45;88.03
75247;BME280;63844;50.042;19.224;2022-11-21T06:26:27;98091.39;;;-2.43;88.27
75247;BME280;63844;50.042;19.224;2022-11-21T06:28:53;98089.36;;;-2.39;88.30
75247;BME280;63844;50.042;19.224;2022-11-21T06:31:22;98085.85;;;-2.38;88.55
75247;BME280;63844;50.042;19.224;2022-11-21T06:33:54;98085.45;;;-2.36;88.66
75247;BME280;63844;50.042;19.224;2022-11-21T06:36:20;98084.48;;;-2.32;88.31
75247;BME280;63844;50.042;19.224;2022-11-21T06:38:47;98084.48;;;-2.33;88.51
75247;BME280;63844;50.042;19.224;2022-11-21T06:41:16;98082.08;;;-2.33;88.91
75247;BME280;63844;50.042;19.224;2022-11-21T06:43:43;98082.67;;;-2.30;88.37
75247;BME280;63844;50.042;19.224;2022-11-21T06:46:10;98079.26;;;-2.32;88.83
75247;BME280;63844;50.042;19.224;2022-11-21T06:48:37;98078.64;;;-2.28;88.21
75247;BME280;63844;50.042;19.224;2022-11-21T06:51:04;98080.14;;;-2.26;88.03
75247;BME280;63844;50.042;19.224;2022-11-21T06:53:32;98079.81;;;-2.27;87.82
75247;BME280;63844;50.042;19.224;2022-11-21T06:56:02;98081.04;;;-2.27;88.41
75247;BME280;63844;50.042;19.224;2022-11-21T06:58:30;98081.66;;;-2.25;89.02
75247;BME280;63844;50.042;19.224;2022-11-21T07:00:56;98077.29;;;-2.17;88.37
75247;BME280;63844;50.042;19.224;2022-11-21T07:03:23;98082.35;;;-2.25;88.83
75247;BME280;63844;50.042;19.224;2022-11-21T07:05:49;98083.79;;;-2.20;88.57
75247;BME280;63844;50.042;19.224;2022-11-21T07:08:17;98080.20;;;-2.23;89.03
75247;BME280;63844;50.042;19.224;2022-11-21T07:10:43;98075.30;;;-2.27;89.86
75247;BME280;63844;50.042;19.224;2022-11-21T07:13:10;98074.70;;;-2.30;90.54
75247;BME280;63844;50.042;19.224;2022-11-21T07:15:51;98073.98;;;-2.23;90.44
75247;BME280;63844;50.042;19.224;2022-11-21T07:18:21;98071.07;;;-2.06;89.19
75247;BME280;63844;50.042;19.224;2022-11-21T07:20:48;98063.98;;;-2.02;89.45
75247;BME280;63844;50.042;19.224;2022-11-21T07:23:14;98066.05;;;-1.90;89.16
75247;BME280;63844;50.042;19.224;2022-11-21T07:25:41;98065.01;;;-1.79;88.67
75247;BME280;63844;50.042;19.224;2022-11-21T07:28:08;98060.52;;;-1.74;89.59
75247;BME280;63844;50.042;19.224;2022-11-21T07:30:35;98061.82;;;-1.71;90.75
75247;BME280;63844;50.042;19.224;2022-11-21T07:33:04;98055.20;;;-1.60;90.19
75247;BME280;63844;50.042;19.224;2022-11-21T07:35:32;98051.81;;;-1.51;90.08
75247;BME280;63844;50.042;19.224;2022-11-21T07:37:59;98048.77;;;-1.43;90.11
75247;BME280;63844;50.042;19.224;2022-11-21T07:40:26;98051.55;;;-1.38;90.28
75247;BME280;63844;50.042;19.224;2022-11-21T07:42:52;98051.61;;;-1.30;90.09
75247;BME280;63844;50.042;19.224;2022-11-21T07:45:19;98051.84;;;-1.26;90.21
75247;BME280;63844;50.042;19.224;2022-11-21T07:47:45;98054.39;;;-1.20;89.71
75247;BME280;63844;50.042;19.224;2022-11-21T07:50:12;98047.36;;;-1.12;89.66
75247;BME280;63844;50.042;19.224;2022-11-21T07:52:38;98048.11;;;-0.98;89.08
75247;BME280;63844;50.042;19.224;2022-11-21T07:55:06;98047.42;;;-0.93;88.90
75247;BME280;63844;50.042;19.224;2022-11-21T07:57:32;98042.27;;;-0.90;88.75
75247;BME280;63844;50.042;19.224;2022-11-21T07:59:59;98039.05;;;-0.97;89.22
75247;BME280;63844;50.042;19.224;2022-11-21T08:02:27;98036.87;;;-0.99;89.23
75247;BME280;63844;50.042;19.224;2022-11-21T08:04:53;98034.05;;;-0.83;88.92
75247;BME280;63844;50.042;19.224;2022-11-21T08:07:21;98030.02;;;-0.88;88.88
75247;BME280;63844;50.042;19.224;2022-11-21T08:09:47;98026.27;;;-0.89;89.27
75247;BME280;63844;50.042;19.224;2022-11-21T08:12:14;98022.70;;;-0.82;89.08
75247;BME280;63844;50.042;19.224;2022-11-21T08:14:41;98023.54;;;-0.86;89.38
75247;BME280;63844;50.042;19.224;2022-11-21T08:17:07;98021.73;;;-0.70;88.87
75247;BME280;63844;50.042;19.224;2022-11-21T08:19:33;98018.85;;;-0.67;88.82
75247;BME280;63844;50.042;19.224;2022-11-21T08:22:00;98021.30;;;-0.57;88.48
75247;BME280;63844;50.042;19.224;2022-11-21T08:24:26;98022.06;;;-0.64;88.67
75247;BME280;63844;50.042;19.224;2022-11-21T08:26:53;98024.23;;;-0.62;88.91
75247;BME280;63844;50.042;19.224;2022-11-21T08:29:19;98024.54;;;-0.51;88.32
75247;BME280;63844;50.042;19.224;2022-11-21T08:31:46;98025.65;;;-0.49;87.95
75247;BME280;63844;50.042;19.224;2022-11-21T08:34:12;98029.14;;;-0.48;88.02
75247;BME280;63844;50.042;19.224;2022-11-21T08:36:38;98031.94;;;-0.54;88.12
75247;BME280;63844;50.042;19.224;2022-11-21T08:39:05;98028.54;;;-0.56;88.18
75247;BME280;63844;50.042;19.224;2022-11-21T08:41:31;98027.63;;;-0.55;88.52
75247;BME280;63844;50.042;19.224;2022-11-21T08:44:16;98024.70;;;-0.46;88.22
75247;BME280;63844;50.042;19.224;2022-11-21T08:46:43;98025.36;;;-0.50;88.50
75247;BME280;63844;50.042;19.224;2022-11-21T08:49:09;98024.77;;;-0.34;88.29
75247;BME280;63844;50.042;19.224;2022-11-21T08:51:36;98027.84;;;-0.28;87.83
75247;BME280;63844;50.042;19.224;2022-11-21T08:54:02;98028.23;;;-0.19;87.54
75247;BME280;63844;50.042;19.224;2022-11-21T08:56:29;98025.82;;;-0.16;87.77
75247;BME280;63844;50.042;19.224;2022-11-21T08:58:56;98020.07;;;-0.11;88.02
75247;BME280;63844;50.042;19.224;2022-11-21T09:01:22;98022.15;;;-0.07;87.89
75247;BME280;63844;50.042;19.224;2022-11-21T09:03:48;98019.59;;;0.06;87.66
75247;BME280;63844;50.042;19.224;2022-11-21T09:06:15;98020.72;;;0.08;87.79
75247;BME280;63844;50.042;19.224;2022-11-21T09:08:41;98015.90;;;0.20;87.78
75247;BME280;63844;50.042;19.224;2022-11-21T09:11:09;98014.56;;;0.23;87.67
75247;BME280;63844;50.042;19.224;2022-11-21T09:13:35;98013.13;;;0.37;87.30
75247;BME280;63844;50.042;19.224;2022-11-21T09:16:02;98014.78;;;0.39;87.30
75247;BME280;63844;50.042;19.224;2022-11-21T09:18:51;98015.11;;;0.39;87.35
75247;BME280;63844;50.042;19.224;2022-11-21T09:21:19;98019.28;;;0.44;87.01
75247;BME280;63844;50.042;19.224;2022-11-21T09:23:46;98016.93;;;0.46;87.05
75247;BME280;63844;50.042;19.224;2022-11-21T09:26:12;98018.94;;;0.52;86.74
75247;BME280;63844;50.042;19.224;2022-11-21T09:28:39;98023.56;;;0.58;86.81
75247;BME280;63844;50.042;19.224;2022-11-21T09:31:06;98021.84;;;0.61;87.00
75247;BME280;63844;50.042;19.224;2022-11-21T09:33:34;98019.94;;;0.74;86.85
75247;BME280;63844;50.042;19.224;2022-11-21T09:36:00;98022.08;;;0.93;86.92
75247;BME280;63844;50.042;19.224;2022-11-21T09:38:27;98016.38;;;1.00;86.95
75247;BME280;63844;50.042;19.224;2022-11-21T09:41:11;98010.77;;;1.17;86.43
75247;BME280;63844;50.042;19.224;2022-11-21T09:47:02;98009.02;;;1.22;86.68
75247;BME280;63844;50.042;19.224;2022-11-21T09:49:35;98009.83;;;1.26;86.78
75247;BME280;63844;50.042;19.224;2022-11-21T09:52:07;98004.70;;;1.32;86.50
75247;BME280;63844;50.042;19.224;2022-11-21T09:54:35;98005.13;;;1.34;86.54
75247;BME280;63844;50.042;19.224;2022-11-21T09:57:04;98002.39;;;1.41;86.51
75247;BME280;63844;50.042;19.224;2022-11-21T09:59:34;98002.89;;;1.38;85.92
75247;BME280;63844;50.042;19.224;2022-11-21T10:02:13;98001.21;;;1.48;85.98
75247;BME280;63844;50.042;19.224;2022-11-21T10:04:40;97996.43;;;1.53;85.45
75247;BME280;63844;50.042;19.224;2022-11-21T10:07:26;97997.93;;;1.39;85.66
75247;BME280;63844;50.042;19.224;2022-11-21T10:10:17;97993.60;;;1.50;85.99
75247;BME280;63844;50.042;19.224;2022-11-21T10:15:43;97992.12;;;1.71;85.85
75247;BME280;63844;50.042;19.224;2022-11-21T10:26:59;97983.34;;;1.84;85.41
75247;BME280;63844;50.042;19.224;2022-11-21T10:30:04;97980.55;;;1.87;85.20
75247;BME280;63844;50.042;19.224;2022-11-21T10:32:40;97982.92;;;1.96;85.54
75247;BME280;63844;50.042;19.224;2022-11-21T10:37:51;97976.66;;;2.10;85.46
75247;BME280;63844;50.042;19.224;2022-11-21T10:40:28;97975.73;;;2.12;84.74
75247;BME280;63844;50.042;19.224;2022-11-21T10:43:30;97974.45;;;2.16;85.22
75247;BME280;63844;50.042;19.224;2022-11-21T10:46:18;97968.35;;;2.19;84.91
75247;BME280;63844;50.042;19.224;2022-11-21T10:49:03;97968.52;;;2.27;85.09
75247;BME280;63844;50.042;19.224;2022-11-21T10:54:30;97958.13;;;2.39;85.09
75247;BME280;63844;50.042;19.224;2022-11-21T10:57:17;97958.04;;;2.44;85.30
75247;BME280;63844;50.042;19.224;2022-11-21T11:00:25;97957.20;;;2.51;84.53
75247;BME280;63844;50.042;19.224;2022-11-21T11:08:08;97952.77;;;2.69;83.08
75247;BME280;63844;50.042;19.224;2022-11-21T11:10:39;97951.75;;;2.76;83.15
75247;BME280;63844;50.042;19.224;2022-11-21T11:13:17;97941.41;;;2.87;83.93
75247;BME280;63844;50.042;19.224;2022-11-21T11:16:14;97936.29;;;2.91;83.94
75247;BME280;63844;50.042;19.224;2022-11-21T11:18:47;97938.26;;;2.97;83.74
75247;BME280;63844;50.042;19.224;2022-11-21T11:21:22;97937.33;;;3.01;83.73
75247;BME280;63844;50.042;19.224;2022-11-21T11:23:51;97938.45;;;3.03;83.54
75247;BME280;63844;50.042;19.224;2022-11-21T11:26:29;97938.18;;;3.05;83.11
75247;BME280;63844;50.042;19.224;2022-11-21T11:29:12;97937.77;;;3.09;83.69
75247;BME280;63844;50.042;19.224;2022-11-21T11:34:16;97938.63;;;3.17;83.78
75247;BME280;63844;50.042;19.224;2022-11-21T11:39:38;97942.41;;;3.24;83.20
75247;BME280;63844;50.042;19.224;2022-11-21T11:42:17;97943.34;;;3.30;83.25
75247;BME280;63844;50.042;19.224;2022-11-21T11:47:58;97945.48;;;3.22;83.33
75247;BME280;63844;50.042;19.224;2022-11-21T11:50:36;97944.82;;;3.22;83.50
75247;BME280;63844;50.042;19.224;2022-11-21T11:53:10;97943.45;;;3.24;83.28
75247;BME280;63844;50.042;19.224;2022-11-21T11:55:44;97944.36;;;3.24;83.40
75247;BME280;63844;50.042;19.224;2022-11-21T12:01:10;97939.64;;;3.24;82.91
75247;BME280;63844;50.042;19.224;2022-11-21T12:03:58;97931.84;;;3.25;82.98
75247;BME280;63844;50.042;19.224;2022-11-21T12:06:30;97931.12;;;3.29;83.34
75247;BME280;63844;50.042;19.224;2022-11-21T12:09:04;97928.98;;;3.33;83.41
75247;BME280;63844;50.042;19.224;2022-11-21T12:14:49;97927.36;;;3.34;82.66
75247;BME280;63844;50.042;19.224;2022-11-21T12:17:57;97925.27;;;3.37;83.11
75247;BME280;63844;50.042;19.224;2022-11-21T12:23:37;97921.02;;;3.35;82.67
75247;BME280;63844;50.042;19.224;2022-11-21T12:26:32;97917.95;;;3.37;82.83
75247;BME280;63844;50.042;19.224;2022-11-21T12:29:24;97915.46;;;3.37;82.54
75247;BME280;63844;50.042;19.224;2022-11-21T12:32:09;97910.07;;;3.44;83.19
75247;BME280;63844;50.042;19.224;2022-11-21T12:38:01;97904.81;;;3.47;83.20
75247;BME280;63844;50.042;19.224;2022-11-21T12:43:28;97909.19;;;3.53;83.17
75247;BME280;63844;50.042;19.224;2022-11-21T12:46:14;97906.18;;;3.57;82.52
75247;BME280;63844;50.042;19.224;2022-11-21T12:49:10;97902.23;;;3.65;82.59
75247;BME280;63844;50.042;19.224;2022-11-21T12:52:11;97902.11;;;3.77;82.41
75247;BME280;63844;50.042;19.224;2022-11-21T12:58:08;97900.44;;;4.49;80.75
75247;BME280;63844;50.042;19.224;2022-11-21T13:01:01;97894.10;;;4.93;80.66
75247;BME280;63844;50.042;19.224;2022-11-21T13:03:39;97896.83;;;5.20;80.02
75247;BME280;63844;50.042;19.224;2022-11-21T13:06:28;97898.31;;;5.30;77.97
75247;BME280;63844;50.042;19.224;2022-11-21T13:08:56;97900.83;;;5.40;77.31
75247;BME280;63844;50.042;19.224;2022-11-21T13:17:21;97903.62;;;5.40;77.70
75247;BME280;63844;50.042;19.224;2022-11-21T13:22:56;97907.11;;;5.18;79.08
75247;BME280;63844;50.042;19.224;2022-11-21T13:30:52;97906.38;;;5.04;80.21
75247;BME280;63844;50.042;19.224;2022-11-21T13:36:04;97899.61;;;5.00;79.34
75247;BME280;63844;50.042;19.224;2022-11-21T13:47:00;97898.95;;;5.14;79.73
75247;BME280;63844;50.042;19.224;2022-11-21T14:10:42;97904.52;;;5.23;76.16
75247;BME280;63844;50.042;19.224;2022-11-21T14:13:27;97906.77;;;5.27;77.00
75247;BME280;63844;50.042;19.224;2022-11-21T14:18:43;97908.52;;;5.30;76.27
75247;BME280;63844;50.042;19.224;2022-11-21T14:21:37;97908.69;;;5.24;73.85
75247;BME280;63844;50.042;19.224;2022-11-21T14:24:12;97907.76;;;5.22;74.01
75247;BME280;63844;50.042;19.224;2022-11-21T14:26:44;97907.28;;;5.21;75.07
75247;BME280;63844;50.042;19.224;2022-11-21T14:29:39;97907.68;;;5.20;74.80
75247;BME280;63844;50.042;19.224;2022-11-21T14:32:13;97908.45;;;5.16;75.26
75247;BME280;63844;50.042;19.224;2022-11-21T14:34:39;97911.95;;;5.13;74.72
75247;BME280;63844;50.042;19.224;2022-11-21T14:37:06;97910.85;;;5.11;74.54
75247;BME280;63844;50.042;19.224;2022-11-21T14:39:33;97915.62;;;5.14;74.99
75247;BME280;63844;50.042;19.224;2022-11-21T14:42:09;97919.49;;;5.10;75.25
75247;BME280;63844;50.042;19.224;2022-11-21T14:44:37;97915.56;;;5.09;75.81
75247;BME280;63844;50.042;19.224;2022-11-21T14:47:13;97920.38;;;5.08;74.60
75247;BME280;63844;50.042;19.224;2022-11-21T14:49:54;97923.51;;;5.05;74.75
75247;BME280;63844;50.042;19.224;2022-11-21T14:52:26;97923.23;;;5.04;75.38
75247;BME280;63844;50.042;19.224;2022-11-21T14:55:00;97922.14;;;5.02;75.01
75247;BME280;63844;50.042;19.224;2022-11-21T14:57:45;97921.48;;;4.99;74.83
75247;BME280;63844;50.042;19.224;2022-11-21T15:00:18;97925.30;;;4.96;75.31
75247;BME280;63844;50.042;19.224;2022-11-21T15:02:45;97926.68;;;4.93;75.48
75247;BME280;63844;50.042;19.224;2022-11-21T15:05:14;97929.20;;;4.92;75.35